createdAt,value
2022-12-20T00:00:54.348Z,96663.59
2022-12-20T00:03:23.588Z,96658.50
2022-12-20T00:05:51.409Z,96670.53
2022-12-20T00:08:19.416Z,96673.16
2022-12-20T00:10:47.293Z,96657.03
2022-12-20T00:13:15.210Z,96656.72
2022-12-20T00:15:43.213Z,96653.13
2022-12-20T00:18:12.209Z,96659.34
2022-12-20T00:20:41.343Z,96644.38
2022-12-20T00:23:09.115Z,96653.44
2022-12-20T00:25:36.977Z,96640.63
2022-12-20T00:28:04.923Z,96653.44
2022-12-20T00:30:32.664Z,96633.06
2022-12-20T00:33:00.443Z,96636.38
2022-12-20T00:35:28.242Z,96638.97
2022-12-20T00:37:57.408Z,96616.00
2022-12-20T00:40:25.191Z,96640.78
2022-12-20T00:42:53.034Z,96648.19
2022-12-20T00:45:20.948Z,96636.38
2022-12-20T00:47:50.050Z,96628.66
2022-12-20T00:50:18.256Z,96617.66
2022-12-20T00:52:46.003Z,96622.91
2022-12-20T00:55:15.143Z,96619.28
2022-12-20T00:57:43.256Z,96609.13
2022-12-20T01:00:12.593Z,96594.00
2022-12-20T01:02:40.464Z,96561.53
2022-12-20T01:05:09.264Z,96549.53
2022-12-20T01:07:37.287Z,96553.94
2022-12-20T01:10:05.398Z,96564.16
2022-12-20T01:12:34.644Z,96541.16
2022-12-20T01:15:02.850Z,96493.28
2022-12-20T01:17:30.623Z,96521.66
2022-12-20T01:19:58.471Z,96520.50
2022-12-20T01:22:26.333Z,96521.66
2022-12-20T01:24:54.151Z,96527.41
2022-12-20T01:27:22.296Z,96509.53
2022-12-20T01:29:52.295Z,96492.31
2022-12-20T01:32:21.100Z,96496.88
2022-12-20T01:34:48.780Z,96504.06
2022-12-20T01:37:16.662Z,96509.00
2022-12-20T01:39:44.420Z,96508.03
2022-12-20T01:42:15.540Z,96454.53
2022-12-20T01:45:00.365Z,96444.06
2022-12-20T01:47:33.472Z,96498.53
2022-12-20T01:50:04.159Z,96490.00
2022-12-20T01:52:36.410Z,96490.00
2022-12-20T01:55:10.091Z,96447.00
2022-12-20T01:57:42.234Z,96444.06
2022-12-20T02:00:13.168Z,96437.19
2022-12-20T02:02:41.729Z,96447.38
2022-12-20T02:05:10.289Z,96432.25
2022-12-20T02:07:39.900Z,96407.66
2022-12-20T02:10:10.280Z,96441.44
2022-12-20T02:12:42.436Z,96403.25
2022-12-20T02:15:25.223Z,96419.47
2022-12-20T02:18:03.196Z,96418.66
2022-12-20T02:20:50.986Z,96406.69
2022-12-20T02:23:46.190Z,96351.47
2022-12-20T02:26:31.756Z,96342.13
2022-12-20T02:29:21.353Z,96352.28
2022-12-20T02:31:57.213Z,96378.66
2022-12-20T02:34:27.210Z,96399.16
2022-12-20T02:36:54.994Z,96352.28
2022-12-20T02:39:24.959Z,96328.34
2022-12-20T02:41:55.863Z,96361.47
2022-12-20T02:44:45.411Z,96332.75
2022-12-20T02:47:21.687Z,96360.81
2022-12-20T02:49:51.691Z,96370.16
2022-12-20T02:52:22.212Z,96355.56
2022-12-20T02:54:50.250Z,96378.66
2022-12-20T02:57:23.598Z,96360.81
2022-12-20T02:59:59.345Z,96325.88
2022-12-20T03:02:29.452Z,96353.13
2022-12-20T03:04:59.701Z,96317.22
2022-12-20T03:07:30.486Z,96328.34
2022-12-20T03:09:58.291Z,96334.41
2022-12-20T03:12:26.208Z,96340.34
2022-12-20T03:14:54.082Z,96323.44
2022-12-20T03:17:22.123Z,96331.94
2022-12-20T03:19:51.338Z,96330.31
2022-12-20T03:22:19.133Z,96315.72
2022-12-20T03:24:47.055Z,96312.59
2022-12-20T03:27:14.931Z,96335.53
2022-12-20T03:29:42.716Z,96338.69
2022-12-20T03:32:10.510Z,96331.28
2022-12-20T03:34:38.276Z,96308.34
2022-12-20T03:37:07.565Z,96328.34
2022-12-20T03:39:35.421Z,96306.56
2022-12-20T03:42:03.158Z,96349.69
2022-12-20T03:44:31.538Z,96323.44
2022-12-20T03:46:59.431Z,96310.31
2022-12-20T03:49:27.300Z,96328.34
2022-12-20T03:51:55.179Z,96325.22
2022-12-20T03:54:24.300Z,96296.25
2022-12-20T03:56:52.135Z,96324.41
2022-12-20T03:59:20.006Z,96287.72
2022-12-20T04:01:48.252Z,96309.00
2022-12-20T04:04:17.211Z,96292.97
2022-12-20T04:06:45.088Z,96308.34
2022-12-20T04:09:13.158Z,96265.78
2022-12-20T04:11:42.402Z,96310.00
2022-12-20T04:14:10.248Z,96323.44
2022-12-20T04:16:38.159Z,96308.34
2022-12-20T04:19:06.207Z,96342.25
2022-12-20T04:21:36.074Z,96333.91
2022-12-20T04:24:04.901Z,96314.25
2022-12-20T04:26:32.833Z,96317.19
2022-12-20T04:29:01.969Z,96309.84
2022-12-20T04:31:29.986Z,96309.00
2022-12-20T04:33:58.126Z,96291.31
2022-12-20T04:36:26.473Z,96301.47
2022-12-20T04:38:55.199Z,96294.91
2022-12-20T04:41:27.047Z,96312.59
2022-12-20T04:43:57.107Z,96316.03
2022-12-20T04:46:27.520Z,96274.28
2022-12-20T04:48:57.777Z,96278.69
2022-12-20T04:51:27.681Z,96293.94
2022-12-20T04:53:55.275Z,96261.69
2022-12-20T04:56:26.241Z,96315.22
2022-12-20T04:58:55.417Z,96302.44
2022-12-20T05:01:24.110Z,96291.31
2022-12-20T05:03:53.720Z,96286.41
2022-12-20T05:06:21.659Z,96286.91
2022-12-20T05:08:49.575Z,96307.53
2022-12-20T05:11:18.878Z,96312.44
2022-12-20T05:13:46.681Z,96330.31
2022-12-20T05:16:15.073Z,96310.00
2022-12-20T05:18:48.602Z,96303.13
2022-12-20T05:21:35.986Z,96320.16
2022-12-20T05:24:21.284Z,96310.00
2022-12-20T05:26:49.142Z,96345.03
2022-12-20T05:29:17.747Z,96345.69
2022-12-20T05:31:45.603Z,96320.16
2022-12-20T05:34:13.469Z,96328.66
2022-12-20T05:36:42.598Z,96288.69
2022-12-20T05:39:11.913Z,96320.47
2022-12-20T05:41:40.535Z,96313.59
2022-12-20T05:44:08.853Z,96331.28
2022-12-20T05:46:36.800Z,96337.19
2022-12-20T05:49:04.902Z,96354.25
2022-12-20T05:51:32.708Z,96331.28
2022-12-20T05:54:01.859Z,96344.88
2022-12-20T05:56:29.638Z,96354.25
2022-12-20T05:58:59.030Z,96357.53
2022-12-20T06:01:27.073Z,96328.81
2022-12-20T06:03:55.028Z,96356.88
2022-12-20T06:06:22.999Z,96344.06
2022-12-20T06:08:50.819Z,96350.00
2022-12-20T06:11:24.351Z,96323.75
2022-12-20T06:13:55.634Z,96309.31
2022-12-20T06:16:23.537Z,96317.53
2022-12-20T06:18:51.837Z,96335.53
2022-12-20T06:21:19.610Z,96333.91
2022-12-20T06:23:47.418Z,96346.56
2022-12-20T06:26:15.537Z,96348.31
2022-12-20T06:28:44.747Z,96357.53
2022-12-20T06:31:13.079Z,96344.06
2022-12-20T06:33:40.975Z,96346.00
2022-12-20T06:36:09.172Z,96335.53
2022-12-20T06:38:37.063Z,96363.06
2022-12-20T06:41:04.969Z,96355.88
2022-12-20T06:43:32.942Z,96364.72
2022-12-20T06:46:02.151Z,96361.41
2022-12-20T06:48:30.992Z,96377.34
2022-12-20T06:50:58.857Z,96346.69
2022-12-20T06:53:26.702Z,96359.47
2022-12-20T06:55:54.637Z,96359.47
2022-12-20T06:58:22.863Z,96378.97
2022-12-20T07:00:50.923Z,96405.53
2022-12-20T07:03:20.468Z,96398.78
2022-12-20T07:05:53.279Z,96357.47
2022-12-20T07:08:21.150Z,96368.00
2022-12-20T07:10:49.432Z,96378.47
2022-12-20T07:13:17.737Z,96370.47
2022-12-20T07:15:45.841Z,96366.34
2022-12-20T07:18:13.689Z,96400.44
2022-12-20T07:20:42.864Z,96400.44
2022-12-20T07:23:10.730Z,96398.78
2022-12-20T07:25:38.507Z,96412.09
2022-12-20T07:28:06.905Z,96401.78
2022-12-20T07:30:34.715Z,96417.47
2022-12-20T07:33:02.482Z,96410.59
2022-12-20T07:35:30.254Z,96445.50
2022-12-20T07:37:59.595Z,96460.75
2022-12-20T07:40:27.456Z,96464.19
2022-12-20T07:42:55.239Z,96453.06
2022-12-20T07:45:23.218Z,96470.25
2022-12-20T07:47:51.099Z,96455.69
2022-12-20T07:50:19.062Z,96437.00
2022-12-20T07:52:48.006Z,96447.97
2022-12-20T07:55:17.155Z,96474.41
2022-12-20T07:57:49.520Z,96465.03
2022-12-20T08:00:19.077Z,96489.13
2022-12-20T08:02:54.010Z,96499.97
2022-12-20T08:05:22.540Z,96500.13
2022-12-20T08:07:56.843Z,96517.84
2022-12-20T08:10:28.507Z,96534.06
2022-12-20T08:12:57.351Z,96526.38
2022-12-20T08:15:25.741Z,96546.03
2022-12-20T08:17:53.642Z,96524.72
2022-12-20T08:20:21.789Z,96534.38
2022-12-20T08:22:49.556Z,96504.38
2022-12-20T08:25:17.651Z,96503.41
2022-12-20T08:27:46.818Z,96489.81
2022-12-20T08:30:15.599Z,96521.13
2022-12-20T08:32:43.548Z,96525.41
2022-12-20T08:35:13.060Z,96570.00
2022-12-20T08:37:41.955Z,96552.09
2022-12-20T08:40:10.934Z,96547.84
2022-12-20T08:42:38.759Z,96580.31
2022-12-20T08:45:08.782Z,96605.63
2022-12-20T08:47:36.585Z,96620.22
2022-12-20T08:50:04.893Z,96626.13
2022-12-20T08:52:33.092Z,96609.22
2022-12-20T08:55:02.417Z,96631.22
2022-12-20T08:57:32.098Z,96621.88
2022-12-20T08:59:59.934Z,96617.75
2022-12-20T09:02:29.372Z,96615.97
2022-12-20T09:04:57.390Z,96610.88
2022-12-20T09:07:25.214Z,96625.16
2022-12-20T09:09:52.973Z,96623.50
2022-12-20T09:12:20.819Z,96656.97
2022-12-20T09:14:48.576Z,96633.84
2022-12-20T09:17:16.372Z,96679.94
2022-12-20T09:19:45.587Z,96662.88
2022-12-20T09:22:13.334Z,96673.06
2022-12-20T09:24:41.110Z,96719.06
2022-12-20T09:27:08.933Z,96719.06
2022-12-20T09:29:36.806Z,96722.50
2022-12-20T09:32:05.027Z,96722.66
2022-12-20T09:34:32.812Z,96729.56
2022-12-20T09:37:01.989Z,96725.94
2022-12-20T09:39:29.800Z,96719.06
2022-12-20T09:41:59.280Z,96760.09
2022-12-20T09:44:31.646Z,96784.06
2022-12-20T09:47:09.793Z,96790.66
2022-12-20T09:49:42.483Z,96790.00
2022-12-20T09:52:31.374Z,96807.75
2022-12-20T09:55:12.357Z,96804.44
2022-12-20T09:57:53.205Z,96805.28
2022-12-20T10:00:22.293Z,96827.47
2022-12-20T10:03:08.259Z,96791.28
2022-12-20T10:05:47.210Z,96843.59
2022-12-20T10:08:26.834Z,96843.59
2022-12-20T10:10:57.165Z,96865.09
2022-12-20T10:13:36.280Z,96866.59
2022-12-20T10:16:15.381Z,96830.97
2022-12-20T10:18:59.857Z,96843.59
2022-12-20T10:21:37.927Z,96859.03
2022-12-20T10:24:13.718Z,96879.41
2022-12-20T10:26:41.579Z,96882.69
2022-12-20T10:29:10.010Z,96901.75
2022-12-20T10:31:38.025Z,96893.19
2022-12-20T10:34:05.793Z,96904.22
2022-12-20T10:36:35.513Z,96927.38
2022-12-20T10:39:05.757Z,96942.72
2022-12-20T10:41:48.897Z,96957.31
2022-12-20T10:44:22.542Z,96954.69
2022-12-20T10:46:54.035Z,96930.69
2022-12-20T10:49:27.473Z,96936.78
2022-12-20T10:51:57.373Z,96958.97
2022-12-20T10:54:30.420Z,96966.84
2022-12-20T10:57:02.675Z,96954.31
2022-12-20T10:59:35.854Z,96942.84
2022-12-20T11:02:38.796Z,96945.19
2022-12-20T11:05:23.333Z,96911.13
2022-12-20T11:10:46.074Z,96967.69
2022-12-20T11:13:25.809Z,96959.81
2022-12-20T11:15:57.510Z,96956.34
2022-12-20T11:18:39.396Z,96982.97
2022-12-20T11:21:25.869Z,96982.00
2022-12-20T11:24:03.605Z,97002.69
2022-12-20T11:26:44.030Z,97014.41
2022-12-20T11:29:29.240Z,97040.22
2022-12-20T11:32:09.523Z,97023.09
2022-12-20T11:34:46.776Z,97049.59
2022-12-20T11:37:22.983Z,97013.50
2022-12-20T11:40:24.951Z,97031.34
2022-12-20T11:43:02.119Z,97006.00
2022-12-20T11:45:39.654Z,97021.31
2022-12-20T11:48:43.209Z,97054.72
2022-12-20T11:51:20.131Z,97047.09
2022-12-20T11:53:56.261Z,97056.38
2022-12-20T11:56:30.915Z,97070.84
2022-12-20T11:59:04.246Z,97096.81
2022-12-20T12:01:43.094Z,97078.44
2022-12-20T12:04:16.734Z,97078.56
2022-12-20T12:06:48.642Z,97084.66
2022-12-20T12:09:23.919Z,97109.78
2022-12-20T12:12:07.302Z,97102.88
2022-12-20T12:14:46.706Z,97107.00
2022-12-20T12:17:24.827Z,97077.75
2022-12-20T12:19:58.224Z,97084.66
2022-12-20T12:22:34.211Z,97116.69
2022-12-20T12:25:10.635Z,97150.63
2022-12-20T12:27:39.923Z,97143.72
2022-12-20T12:30:13.727Z,97164.97
2022-12-20T12:32:46.941Z,97178.81
2022-12-20T12:35:39.941Z,97192.63
2022-12-20T12:38:28.175Z,97206.00
2022-12-20T12:41:40.318Z,97234.44
2022-12-20T12:44:32.252Z,97254.88
2022-12-20T12:47:03.674Z,97277.94
2022-12-20T12:49:34.655Z,97284.84
2022-12-20T12:52:07.080Z,97298.72
2022-12-20T12:54:38.759Z,97288.19
2022-12-20T12:57:13.964Z,97260.13
2022-12-20T12:59:46.232Z,97292.75
2022-12-20T13:02:37.390Z,97293.44
2022-12-20T13:05:42.052Z,97294.28
2022-12-20T13:08:19.106Z,97309.59
2022-12-20T13:11:13.231Z,97296.75
2022-12-20T13:13:41.020Z,97302.84
2022-12-20T13:16:14.771Z,97313.22
2022-12-20T13:19:12.163Z,97317.50
2022-12-20T13:21:41.952Z,97333.66
2022-12-20T13:24:37.469Z,97286.81
2022-12-20T13:27:22.443Z,97296.06
2022-12-20T13:29:58.174Z,97253.53
2022-12-20T13:32:55.768Z,97246.63
2022-12-20T13:35:31.767Z,97234.59
2022-12-20T13:38:04.863Z,97265.25
2022-12-20T13:40:39.146Z,97286.81
2022-12-20T13:43:20.201Z,97242.19
2022-12-20T13:45:50.761Z,97199.53
2022-12-20T13:48:22.285Z,97183.34
2022-12-20T13:50:52.882Z,97225.22
2022-12-20T13:53:22.723Z,97222.59
2022-12-20T13:55:52.678Z,97243.16
2022-12-20T13:58:23.847Z,97222.72
2022-12-20T14:00:54.070Z,97186.69
2022-12-20T14:03:25.164Z,97181.69
2022-12-20T14:05:58.520Z,97148.44
2022-12-20T14:08:30.132Z,97149.13
2022-12-20T14:11:11.070Z,97213.34
2022-12-20T14:13:39.122Z,97204.78
2022-12-20T14:16:15.629Z,97177.41
2022-12-20T14:18:48.679Z,97256.16
2022-12-20T14:21:17.294Z,97304.91
2022-12-20T14:23:48.541Z,97316.81
2022-12-20T14:26:19.933Z,97313.34
2022-12-20T14:28:50.481Z,97309.91
2022-12-20T14:31:26.963Z,97375.81
2022-12-20T14:34:05.535Z,97348.75
2022-12-20T14:36:34.501Z,97410.09
2022-12-20T14:39:02.544Z,97428.09
2022-12-20T14:41:36.961Z,97404.81
2022-12-20T14:44:17.518Z,97399.84
2022-12-20T14:46:50.605Z,97433.88
2022-12-20T14:49:23.144Z,97440.78
2022-12-20T14:51:51.885Z,97428.91
2022-12-20T14:55:05.147Z,97491.41
2022-12-20T14:57:23.820Z,97488.91
2022-12-20T15:00:03.012Z,97494.84
2022-12-20T15:02:41.973Z,97475.75
2022-12-20T15:05:45.334Z,97481.03
2022-12-20T15:08:15.473Z,97511.88
2022-12-20T15:10:44.470Z,97464.03
2022-12-20T15:13:15.479Z,97491.41
2022-12-20T15:15:43.932Z,97511.03
2022-12-20T15:18:14.261Z,97499.16
2022-12-20T15:20:43.743Z,97509.22
2022-12-20T15:23:16.242Z,97506.06
2022-12-20T15:25:45.762Z,97525.16
2022-12-20T15:28:18.284Z,97554.91
2022-12-20T15:30:47.559Z,97575.41
2022-12-20T15:33:19.037Z,97555.91
2022-12-20T15:35:47.508Z,97532.63
2022-12-20T15:38:25.471Z,97538.72
2022-12-20T15:41:05.963Z,97514.63
2022-12-20T15:43:39.613Z,97513.56
2022-12-20T15:46:07.442Z,97499.16
2022-12-20T15:48:35.325Z,97552.28
2022-12-20T15:51:13.507Z,97525.84
2022-12-20T15:53:41.276Z,97530.97
2022-12-20T15:56:17.638Z,97567.78
2022-12-20T15:58:47.466Z,97488.09
2022-12-20T16:01:19.555Z,97490.88
2022-12-20T16:03:48.160Z,97454.94
2022-12-20T16:06:16.123Z,97504.41
2022-12-20T16:08:44.178Z,97497.50
2022-12-20T16:11:20.769Z,97440.41
2022-12-20T16:13:50.494Z,97400.81
2022-12-20T16:16:19.454Z,97364.22
2022-12-20T16:18:47.759Z,97343.47
2022-12-20T16:21:18.807Z,97392.41
2022-12-20T16:23:47.480Z,97408.44
2022-12-20T16:26:16.352Z,97414.50
2022-12-20T16:28:44.639Z,97352.03
2022-12-20T16:31:22.994Z,97322.22
2022-12-20T16:33:51.083Z,97321.38
2022-12-20T16:36:18.924Z,97393.22
2022-12-20T16:38:46.842Z,97419.63
2022-12-20T16:41:17.101Z,97404.28
2022-12-20T16:43:46.091Z,97405.41
2022-12-20T16:46:17.826Z,97412.84
2022-12-20T16:48:46.570Z,97397.66
2022-12-20T16:51:24.729Z,97390.47
2022-12-20T16:54:17.867Z,97474.69
2022-12-20T16:56:41.268Z,97443.88
2022-12-20T16:59:25.134Z,97456.88
2022-12-20T17:01:56.874Z,97418.94
2022-12-20T17:04:26.680Z,97423.09
2022-12-20T17:06:54.538Z,97402.09
2022-12-20T17:09:22.339Z,97398.50
2022-12-20T17:11:50.453Z,97425.72
2022-12-20T17:14:19.941Z,97463.50
2022-12-20T17:16:47.920Z,97439.44
2022-12-20T17:19:20.216Z,97436.13
2022-12-20T17:24:35.299Z,97275.22
2022-12-20T17:27:03.215Z,97287.25
2022-12-20T17:29:30.993Z,97367.81
2022-12-20T17:31:58.911Z,97417.28
2022-12-20T17:34:30.188Z,97425.31
2022-12-20T17:36:59.439Z,97400.16
2022-12-20T17:39:27.539Z,97403.47
2022-12-20T17:41:56.197Z,97451.59
2022-12-20T17:44:26.508Z,97488.22
2022-12-20T17:46:55.835Z,97488.22
2022-12-20T17:49:24.470Z,97487.56
2022-12-20T17:51:53.975Z,97530.44
2022-12-20T17:54:25.251Z,97551.88
2022-12-20T17:56:54.773Z,97539.16
2022-12-20T17:59:23.035Z,97509.00
2022-12-20T18:01:51.070Z,97458.53
2022-12-20T18:04:19.258Z,97474.00
2022-12-20T18:06:47.502Z,97450.09
2022-12-20T18:09:18.501Z,97471.38
2022-12-20T18:11:46.703Z,97484.53
2022-12-20T18:14:15.195Z,97425.84
2022-12-20T18:16:43.266Z,97395.19
2022-12-20T18:19:16.926Z,97347.38
2022-12-20T18:21:45.100Z,97346.41
2022-12-20T18:24:14.200Z,97331.47
2022-12-20T18:26:44.032Z,97337.00
2022-12-20T18:29:12.394Z,97423.38
2022-12-20T18:31:40.532Z,97447.31
2022-12-20T18:34:08.407Z,97431.13
2022-12-20T18:36:38.321Z,97460.47
2022-12-20T18:39:08.125Z,97472.34
2022-12-20T18:41:37.808Z,97503.03
2022-12-20T18:44:08.089Z,97499.72
2022-12-20T18:46:36.215Z,97525.59
2022-12-20T18:49:04.764Z,97535.69
2022-12-20T18:51:36.524Z,97539.00
2022-12-20T18:54:06.533Z,97518.53
2022-12-20T18:56:37.399Z,97549.38
2022-12-20T18:59:11.891Z,97566.56
2022-12-20T19:01:41.924Z,97562.38
2022-12-20T19:04:10.647Z,97512.75
2022-12-20T19:06:39.012Z,97535.84
2022-12-20T19:09:09.231Z,97542.59
2022-12-20T19:11:37.578Z,97539.28
2022-12-20T19:14:07.631Z,97540.94
2022-12-20T19:16:35.844Z,97546.91
2022-12-20T19:19:04.595Z,97573.63
2022-12-20T19:21:33.998Z,97564.75
2022-12-20T19:24:05.226Z,97598.25
2022-12-20T19:26:33.479Z,97605.16
2022-12-20T19:29:01.260Z,97574.31
2022-12-20T19:31:32.119Z,97562.38
2022-12-20T19:34:03.393Z,97560.59
2022-12-20T19:36:35.407Z,97499.03
2022-12-20T19:39:05.693Z,97476.78
2022-12-20T19:41:36.026Z,97468.22
2022-12-20T19:44:04.674Z,97460.47
2022-12-20T19:46:33.958Z,97484.53
2022-12-20T19:49:01.977Z,97518.69
2022-12-20T19:51:30.387Z,97544.56
2022-12-20T19:53:59.488Z,97558.94
2022-12-20T19:56:30.163Z,97535.84
2022-12-20T19:58:58.254Z,97548.56
2022-12-20T20:01:27.821Z,97547.88
2022-12-20T20:03:58.813Z,97542.59
2022-12-20T20:06:28.998Z,97540.94
2022-12-20T20:08:59.688Z,97512.75
2022-12-20T20:11:28.475Z,97513.56
2022-12-20T20:13:56.448Z,97533.50
2022-12-20T20:16:24.414Z,97573.75
2022-12-20T20:18:52.525Z,97581.38
2022-12-20T20:21:23.473Z,97576.25
2022-12-20T20:23:53.202Z,97580.56
2022-12-20T20:26:23.246Z,97603.66
2022-12-20T20:28:51.700Z,97568.22
2022-12-20T20:31:20.872Z,97582.22
2022-12-20T20:33:49.241Z,97581.38
2022-12-20T20:36:19.138Z,97597.84
2022-12-20T20:38:49.796Z,97585.81
2022-12-20T20:41:17.759Z,97584.56
2022-12-20T20:43:46.018Z,97600.19
2022-12-20T20:46:15.688Z,97576.25
2022-12-20T20:48:45.491Z,97592.44
2022-12-20T20:51:13.767Z,97613.88
2022-12-20T20:53:42.257Z,97609.59
2022-12-20T20:56:11.861Z,97597.56
2022-12-20T20:58:39.889Z,97614.88
2022-12-20T21:01:09.583Z,97622.31
2022-12-20T21:03:38.405Z,97620.97
2022-12-20T21:06:39.287Z,97616.53
2022-12-20T21:08:55.297Z,97611.84
2022-12-20T21:11:24.856Z,97646.56
2022-12-20T21:13:54.410Z,97629.53
2022-12-20T21:16:22.625Z,97646.41
2022-12-20T21:18:52.627Z,97641.72
2022-12-20T21:21:21.355Z,97629.69
2022-12-20T21:23:49.390Z,97673.28
2022-12-20T21:26:18.732Z,97686.97
2022-12-20T21:28:48.417Z,97674.09
2022-12-20T21:31:17.757Z,97658.34
2022-12-20T21:33:46.845Z,97682.69
2022-12-20T21:36:17.009Z,97698.09
2022-12-20T21:38:50.184Z,97692.09
2022-12-20T21:41:19.142Z,97680.88
2022-12-20T21:43:48.343Z,97672.44
2022-12-20T21:46:16.630Z,97676.59
2022-12-20T21:48:45.711Z,97702.38
2022-12-20T21:51:15.027Z,97695.44
2022-12-20T21:53:44.700Z,97714.56
2022-12-20T21:56:13.056Z,97702.38
2022-12-20T21:58:40.905Z,97723.97
2022-12-20T22:01:10.339Z,97730.75
2022-12-20T22:03:39.191Z,97713.59
2022-12-20T22:06:07.581Z,97703.22
2022-12-20T22:08:35.722Z,97671.22
2022-12-20T22:11:05.845Z,97669.81
2022-12-20T22:13:41.167Z,97685.47
2022-12-20T22:16:13.304Z,97698.22
2022-12-20T22:18:42.123Z,97693.78
2022-12-20T22:21:12.774Z,97710.97
2022-12-20T22:23:41.230Z,97684.91
2022-12-20T22:26:11.169Z,97693.91
2022-12-20T22:28:39.783Z,97717.06
2022-12-20T22:31:08.901Z,97692.09
2022-12-20T22:33:39.225Z,97711.50
2022-12-20T22:36:08.873Z,97705.25
2022-12-20T22:38:37.931Z,97706.22
2022-12-20T22:41:10.620Z,97714.56
2022-12-20T22:43:41.013Z,97717.88
2022-12-20T22:48:58.601Z,97749.06
2022-12-20T22:51:27.460Z,97759.28
2022-12-20T22:53:55.677Z,97762.75
2022-12-20T22:56:23.758Z,97743.63
2022-12-20T22:58:51.827Z,97735.19
2022-12-20T23:01:21.483Z,97737.00
2022-12-20T23:03:49.732Z,97747.25
2022-12-20T23:06:20.854Z,97743.78
2022-12-20T23:08:49.886Z,97739.50
2022-12-20T23:11:38.838Z,97725.94
2022-12-20T23:14:24.692Z,97761.78
2022-12-20T23:16:52.816Z,97777.16
2022-12-20T23:19:20.684Z,97764.41
2022-12-20T23:22:07.194Z,97766.91
2022-12-20T23:24:35.133Z,97735.34
2022-12-20T23:27:03.287Z,97723.16
2022-12-20T23:29:31.178Z,97709.97
2022-12-20T23:31:59.049Z,97731.72
2022-12-20T23:34:27.002Z,97784.22
2022-12-20T23:36:56.208Z,97786.84
2022-12-20T23:39:24.007Z,97765.25
2022-12-20T23:41:51.917Z,97773.84
2022-12-20T23:44:19.703Z,97751.53
2022-12-20T23:46:47.510Z,97790.19
2022-12-20T23:49:15.643Z,97772.19
2022-12-20T23:51:43.480Z,97766.22
2022-12-20T23:54:12.691Z,97779.09
2022-12-20T23:56:41.131Z,97791.97
2022-12-20T23:59:08.914Z,97801.53
